TAF and METAR

Decoding for American and Canadian METARs and TAFs is not fully implemented.

Could not understand the following METAR

CYXX 230900Z 00000KT 15SM FEW120 SCT150 15/13 A3002 RMK AC2AC2 SLP168

TAF for Abbotsford International Airport

TAF CYXX 230538Z 2306/2406 VRB03KT P6SM FEW100 BECMG 2316/2318 24010KT FM240200 22008KT P6SM SCT060 BKN140 RMK NXT FCST BY 231200Z
Report created 23. mai 07:38

between 23. mai 08:00 - 24. mai 08:00

wind 3 knots from various directions
Abbotsford International Airport in Canada at 58m

Latest 5 airports